Time;durP1;ratioP1;P1;durP2;ratioP2;P2;SDS_P1;SDS_P2;PMS_P1;PMS_P2;Temp;Humidity;BMP_temperature;BMP_pressure;BME280_temperature;BME280_humidity;BME280_pressure;Samples;Min_cycle;Max_cycle;Signal;HPM_P1;HPM_P2
2022/09/17 00:01:47;;;;;;;715.45;417.77;;;;;;;23.35;59.51;95791.92;363396;291;619408;-54
2022/09/17 00:03:51;;;;;;;675.35;394.23;;;;;;;23.31;59.24;95788.33;363394;291;620407;-56
2022/09/17 00:05:53;;;;;;;734.67;418.37;;;;;;;23.32;59.79;95800.97;363127;291;620957;-55
2022/09/17 00:07:55;;;;;;;943.30;511.65;;;;;;;23.28;61.41;95798.73;363452;291;622423;-55
2022/09/17 00:09:57;;;;;;;716.15;420.23;;;;;;;23.24;59.87;95792.37;363376;291;619868;-56
2022/09/17 00:12:00;;;;;;;738.95;429.98;;;;;;;23.21;59.86;95793.92;363473;291;621636;-55
2022/09/17 00:14:02;;;;;;;723.75;422.45;;;;;;;23.28;59.80;95798.73;363400;291;618640;-56
2022/09/17 00:16:04;;;;;;;703.50;392.37;;;;;;;23.25;59.71;95793.95;363409;291;620159;-55
2022/09/17 00:18:06;;;;;;;1314.75;639.87;;;;;;;23.21;62.16;95794.50;363352;291;621019;-55
2022/09/17 00:20:12;;;;;;;822.72;473.30;;;;;;;23.26;59.98;95799.11;363456;291;620139;-55
2022/09/17 00:22:14;;;;;;;770.45;447.40;;;;;;;23.14;60.15;95798.54;363425;291;621295;-54
2022/09/17 00:24:16;;;;;;;894.37;523.70;;;;;;;23.19;59.85;95795.47;363374;291;620870;-60
2022/09/17 00:26:18;;;;;;;788.05;443.75;;;;;;;23.34;59.43;95796.66;363021;291;619893;-58
2022/09/17 00:28:20;;;;;;;762.10;413.15;;;;;;;23.32;59.61;95788.53;362318;291;621102;-59
2022/09/17 00:30:22;;;;;;;763.80;434.45;;;;;;;23.45;59.36;95789.09;362747;291;619633;-56
2022/09/17 00:32:26;;;;;;;740.47;395.35;;;;;;;23.37;59.13;95791.75;362095;291;620635;-56
2022/09/17 00:34:28;;;;;;;725.25;394.20;;;;;;;23.37;59.15;95788.19;363021;291;621064;-56
2022/09/17 00:36:30;;;;;;;670.15;350.43;;;;;;;23.35;59.00;95787.77;363284;291;622893;-56
2022/09/17 00:38:32;;;;;;;592.08;299.95;;;;;;;23.24;59.09;95786.84;363200;291;619527;-55
2022/09/17 00:40:34;;;;;;;569.52;292.68;;;;;;;23.30;59.49;95804.70;363248;291;621161;-56
2022/09/17 00:42:36;;;;;;;479.65;236.90;;;;;;;23.20;59.46;95795.67;363124;291;621558;-55
2022/09/17 00:44:39;;;;;;;435.35;197.35;;;;;;;23.22;59.68;95793.33;363207;290;619667;-56
2022/09/17 00:46:41;;;;;;;367.85;171.62;;;;;;;23.15;59.53;95802.89;363215;291;620546;-57
2022/09/17 00:48:44;;;;;;;336.60;148.87;;;;;;;23.15;59.82;95803.69;363203;291;622159;-55
2022/09/17 00:50:46;;;;;;;283.07;134.55;;;;;;;23.08;59.87;95803.61;362898;291;620390;-55
2022/09/17 00:52:48;;;;;;;209.15;97.65;;;;;;;22.97;59.61;95799.30;362285;291;620275;-57
2022/09/17 00:54:50;;;;;;;180.80;86.53;;;;;;;23.07;59.50;95801.43;362966;291;621502;-54
2022/09/17 00:56:52;;;;;;;146.80;70.08;;;;;;;23.00;59.66;95806.05;363264;291;622464;-54
2022/09/17 00:58:55;;;;;;;121.02;60.75;;;;;;;23.00;59.78;95797.17;363935;291;620225;-55
2022/09/17 01:00:57;;;;;;;80.10;42.62;;;;;;;22.99;59.47;95805.25;363783;291;621192;-56
2022/09/17 01:02:59;;;;;;;70.83;38.63;;;;;;;22.95;59.56;95797.47;363796;291;621288;-57
2022/09/17 01:05:01;;;;;;;69.53;34.95;;;;;;;22.92;59.81;95800.98;363827;291;618634;-54
2022/09/17 01:07:04;;;;;;;51.92;29.92;;;;;;;22.88;59.79;95802.91;363771;291;621147;-56
2022/09/17 01:09:06;;;;;;;46.75;28.80;;;;;;;22.88;59.97;95796.00;363782;291;620991;-54
2022/09/17 01:11:08;;;;;;;34.30;21.30;;;;;;;22.83;59.71;95801.00;363156;291;619298;-55
2022/09/17 01:13:10;;;;;;;34.98;22.62;;;;;;;22.92;60.12;95802.37;363543;290;621205;-54
2022/09/17 01:15:12;;;;;;;27.10;20.05;;;;;;;22.84;59.98;95801.24;363669;291;620612;-57
2022/09/17 01:17:15;;;;;;;22.48;18.40;;;;;;;22.78;60.06;95798.78;363868;291;620639;-56
2022/09/17 01:19:17;;;;;;;23.32;16.10;;;;;;;22.74;60.17;95799.30;363803;291;621579;-56
2022/09/17 01:21:19;;;;;;;19.00;15.03;;;;;;;22.69;60.07;95798.83;363864;291;621418;-54
2022/09/17 01:23:22;;;;;;;17.23;14.07;;;;;;;22.67;60.25;95792.30;363763;290;621399;-55
2022/09/17 01:25:24;;;;;;;14.15;12.73;;;;;;;22.70;60.09;95796.27;363788;291;620758;-55
2022/09/17 01:27:26;;;;;;;15.08;12.70;;;;;;;22.58;60.21;95790.37;363786;291;619922;-55
2022/09/17 01:29:28;;;;;;;13.10;11.68;;;;;;;22.60;60.39;95796.89;363772;291;620424;-54
2022/09/17 01:31:31;;;;;;;12.53;11.22;;;;;;;22.60;60.05;95806.56;363058;291;621879;-56
2022/09/17 01:33:33;;;;;;;12.65;11.43;;;;;;;22.64;59.99;95797.73;363716;291;620007;-56
2022/09/17 01:35:35;;;;;;;12.60;11.33;;;;;;;22.61;60.32;95794.34;363809;291;621461;-56
2022/09/17 01:37:37;;;;;;;12.95;11.63;;;;;;;22.62;60.32;95798.70;363283;291;622652;-56
2022/09/17 01:39:39;;;;;;;11.68;10.58;;;;;;;22.59;60.16;95795.30;363810;291;621565;-55
2022/09/17 01:41:42;;;;;;;11.80;10.65;;;;;;;22.63;60.45;95793.39;363877;291;620063;-55
2022/09/17 01:43:44;;;;;;;11.03;10.13;;;;;;;22.59;60.30;95794.72;363696;291;621064;-56
2022/09/17 01:45:46;;;;;;;11.75;10.55;;;;;;;22.55;60.31;95793.87;363821;291;620618;-54
2022/09/17 01:47:48;;;;;;;11.00;9.98;;;;;;;22.53;60.40;95794.80;363811;291;622237;-55
2022/09/17 01:49:50;;;;;;;11.38;10.28;;;;;;;22.57;60.58;95787.98;363739;291;621170;-53
2022/09/17 01:51:53;;;;;;;10.82;9.80;;;;;;;22.52;60.52;95794.01;363776;291;621372;-54
2022/09/17 01:53:58;;;;;;;10.70;9.80;;;;;;;22.56;60.99;95783.04;363722;290;620568;-54
2022/09/17 01:56:01;;;;;;;10.20;9.23;;;;;;;22.55;60.56;95788.94;363022;291;621446;-54
2022/09/17 01:58:03;;;;;;;10.40;9.35;;;;;;;22.53;60.39;95790.66;363319;291;619949;-56
2022/09/17 02:00:05;;;;;;;10.45;9.50;;;;;;;22.50;60.42;95796.34;363778;291;621395;-54
2022/09/17 02:02:07;;;;;;;10.13;9.23;;;;;;;22.47;60.48;95792.95;363349;291;621041;-55
2022/09/17 02:04:09;;;;;;;10.55;9.43;;;;;;;22.56;60.56;95794.09;363489;290;620316;-54
2022/09/17 02:06:12;;;;;;;10.43;9.38;;;;;;;22.53;60.71;95791.45;363188;291;620340;-55
2022/09/17 02:08:14;;;;;;;10.50;9.63;;;;;;;22.60;60.77;95795.52;363815;291;620337;-53
2022/09/17 02:10:16;;;;;;;11.35;10.35;;;;;;;22.64;60.71;95794.98;363812;291;621253;-54
2022/09/17 02:12:18;;;;;;;10.13;9.20;;;;;;;22.59;60.75;95797.48;363479;291;620364;-55
2022/09/17 02:14:21;;;;;;;10.72;9.65;;;;;;;22.71;60.65;95792.34;363572;290;620990;-55
2022/09/17 02:16:23;;;;;;;10.58;9.65;;;;;;;22.64;60.61;95799.92;363765;291;619903;-53
2022/09/17 02:18:25;;;;;;;10.85;9.85;;;;;;;22.69;60.72;95796.06;363842;291;621060;-55
2022/09/17 02:20:27;;;;;;;10.80;9.10;;;;;;;22.81;62.18;95795.27;363819;291;619788;-55
2022/09/17 02:22:29;;;;;;;10.95;9.00;;;;;;;22.95;60.54;95790.56;363305;291;621436;-56
2022/09/17 02:24:31;;;;;;;10.58;8.90;;;;;;;22.80;60.64;95795.64;363753;290;621187;-56
2022/09/17 02:26:33;;;;;;;9.83;8.83;;;;;;;22.71;60.76;95791.75;363470;291;621707;-55
2022/09/17 02:28:35;;;;;;;10.93;8.83;;;;;;;22.72;60.81;95799.45;363815;291;621047;-56
2022/09/17 02:30:38;;;;;;;10.60;8.80;;;;;;;22.71;60.83;95785.44;363586;291;620054;-57
2022/09/17 02:32:41;;;;;;;9.80;8.80;;;;;;;22.66;60.92;95789.91;363288;291;621001;-52
2022/09/17 02:34:43;;;;;;;9.75;8.85;;;;;;;22.67;60.99;95794.27;363766;291;621357;-53
2022/09/17 02:36:45;;;;;;;9.75;8.95;;;;;;;22.70;60.97;95786.61;363796;291;622943;-53
2022/09/17 02:38:48;;;;;;;9.40;8.40;;;;;;;22.68;61.01;95788.95;363362;291;619899;-54
2022/09/17 02:40:50;;;;;;;8.93;8.13;;;;;;;22.69;60.99;95793.30;363477;291;620367;-55
2022/09/17 02:42:52;;;;;;;8.20;7.60;;;;;;;22.61;61.13;95782.72;363327;291;620901;-56
2022/09/17 02:44:54;;;;;;;8.20;7.50;;;;;;;22.64;61.21;95781.17;363673;291;620726;-56
2022/09/17 02:46:56;;;;;;;8.75;8.05;;;;;;;22.61;61.34;95786.86;363482;291;620243;-55
2022/09/17 02:49:00;;;;;;;8.85;8.00;;;;;;;22.65;61.28;95782.77;363791;291;620667;-55
2022/09/17 02:51:02;;;;;;;8.40;7.60;;;;;;;22.60;61.33;95772.05;363792;291;621711;-55
2022/09/17 02:53:04;;;;;;;8.28;7.58;;;;;;;22.59;61.37;95783.67;363660;290;621613;-57
2022/09/17 02:55:06;;;;;;;8.83;7.95;;;;;;;22.66;61.37;95777.48;363550;291;621066;-55
2022/09/17 02:57:08;;;;;;;8.10;7.40;;;;;;;22.67;61.29;95779.07;363497;291;619610;-56
2022/09/17 02:59:10;;;;;;;8.30;7.50;;;;;;;22.74;61.25;95786.06;363474;291;619725;-55
2022/09/17 03:01:12;;;;;;;8.48;7.67;;;;;;;22.71;61.27;95777.15;363550;291;621218;-56
2022/09/17 03:03:15;;;;;;;8.63;7.60;;;;;;;22.65;61.44;95785.52;363095;291;619284;-51
2022/09/17 03:05:17;;;;;;;8.65;7.87;;;;;;;22.70;61.53;95785.23;363756;291;620287;-55
2022/09/17 03:07:19;;;;;;;7.97;7.05;;;;;;;22.67;61.47;95779.86;363365;291;621486;-55
2022/09/17 03:09:21;;;;;;;7.53;6.83;;;;;;;22.64;61.63;95786.11;363342;291;620292;-55
2022/09/17 03:11:23;;;;;;;7.45;6.85;;;;;;;22.64;61.64;95783.34;363234;291;619913;-57
2022/09/17 03:13:26;;;;;;;8.43;7.60;;;;;;;22.69;61.64;95783.05;363706;291;621458;-54
2022/09/17 03:15:28;;;;;;;8.50;7.75;;;;;;;22.66;61.68;95781.62;363557;291;621194;-55
2022/09/17 03:17:30;;;;;;;8.65;6.47;;;;;;;22.65;61.69;95778.62;363356;291;621166;-54
2022/09/17 03:19:32;;;;;;;7.30;6.62;;;;;;;22.61;61.79;95769.48;361318;293;620679;-56
2022/09/17 03:21:34;;;;;;;7.83;7.17;;;;;;;22.62;61.78;95776.61;361671;293;621178;-54
2022/09/17 03:23:36;;;;;;;7.83;7.00;;;;;;;22.60;61.88;95771.45;359903;294;619878;-55
2022/09/17 03:25:38;;;;;;;6.62;6.08;;;;;;;22.65;61.78;95774.48;360569;293;620027;-54
2022/09/17 03:27:41;;;;;;;7.70;7.00;;;;;;;22.67;61.77;95783.22;363411;291;620412;-57
2022/09/17 03:29:43;;;;;;;8.40;7.50;;;;;;;22.73;61.77;95783.89;363139;291;621359;-52
2022/09/17 03:31:48;;;;;;;10.55;7.12;;;;;;;22.69;61.81;95787.78;363427;291;621027;-55
2022/09/17 03:33:50;;;;;;;7.08;6.37;;;;;;;22.63;61.88;95780.96;363485;291;621043;-56
2022/09/17 03:35:52;;;;;;;7.60;7.00;;;;;;;22.64;61.89;95777.83;363809;291;620960;-53
2022/09/17 03:37:54;;;;;;;9.38;7.00;;;;;;;22.63;61.89;95787.86;363863;291;621817;-53
2022/09/17 03:39:56;;;;;;;8.30;7.42;;;;;;;22.63;62.01;95789.24;363858;291;619992;-53
2022/09/17 03:41:58;;;;;;;6.92;6.33;;;;;;;22.58;62.03;95796.47;363802;291;622279;-54
2022/09/17 03:44:01;;;;;;;7.17;6.47;;;;;;;22.61;62.03;95792.96;363832;291;619692;-56
2022/09/17 03:46:03;;;;;;;7.80;7.10;;;;;;;22.59;62.01;95790.58;363424;291;619655;-57
2022/09/17 03:48:05;;;;;;;7.22;6.62;;;;;;;22.57;62.11;95789.36;363802;291;621189;-51
2022/09/17 03:50:07;;;;;;;7.08;6.37;;;;;;;22.52;62.14;95785.72;363769;291;620962;-55
2022/09/17 03:52:09;;;;;;;8.90;6.85;;;;;;;22.56;62.17;95789.15;363544;285;619670;-56
2022/09/17 03:54:11;;;;;;;6.90;6.35;;;;;;;22.57;62.13;95789.36;363678;290;619320;-56
2022/09/17 03:56:13;;;;;;;7.60;6.20;;;;;;;22.57;62.13;95783.84;363675;291;621407;-60
2022/09/17 03:58:16;;;;;;;8.33;6.70;;;;;;;22.57;62.13;95779.70;363448;291;620254;-57
2022/09/17 04:00:18;;;;;;;8.68;6.42;;;;;;;22.55;62.11;95783.41;362708;291;621096;-55
2022/09/17 04:02:20;;;;;;;6.87;6.22;;;;;;;22.53;62.25;95782.38;363130;291;623077;-53
2022/09/17 04:04:22;;;;;;;7.08;6.37;;;;;;;22.62;62.12;95784.30;362736;291;620584;-55
2022/09/17 04:06:24;;;;;;;6.53;5.97;;;;;;;22.59;62.08;95775.97;362490;291;620893;-57
2022/09/17 04:08:26;;;;;;;7.37;6.78;;;;;;;22.59;62.10;95785.64;363096;291;619272;-54
2022/09/17 04:10:28;;;;;;;7.05;6.42;;;;;;;22.56;62.16;95781.66;363222;291;621346;-56
2022/09/17 04:12:31;;;;;;;7.37;6.67;;;;;;;22.59;62.19;95787.02;363152;291;621278;-57
2022/09/17 04:14:33;;;;;;;7.28;6.60;;;;;;;22.60;62.10;95783.88;363088;291;619958;-55
2022/09/17 04:16:35;;;;;;;6.50;6.00;;;;;;;22.57;62.32;95778.31;363241;291;621326;-56
2022/09/17 04:18:37;;;;;;;6.97;6.30;;;;;;;22.58;62.21;95781.28;363267;291;621782;-55
2022/09/17 04:20:39;;;;;;;7.03;6.42;;;;;;;22.48;62.45;95785.47;363266;291;620872;-56
2022/09/17 04:22:41;;;;;;;6.85;6.15;;;;;;;22.55;62.29;95775.12;363187;291;620098;-57
2022/09/17 04:24:43;;;;;;;6.92;6.33;;;;;;;22.61;62.12;95777.77;363228;290;619098;-55
2022/09/17 04:26:46;;;;;;;6.87;6.28;;;;;;;22.56;62.26;95769.82;362913;291;621047;-55
2022/09/17 04:28:48;;;;;;;6.85;6.22;;;;;;;22.48;62.40;95775.22;363281;291;618814;-57
2022/09/17 04:30:50;;;;;;;6.20;5.65;;;;;;;22.50;62.35;95771.50;363325;291;620802;-56
2022/09/17 04:32:52;;;;;;;6.72;6.20;;;;;;;22.51;62.38;95771.70;362935;291;620617;-57
2022/09/17 04:34:54;;;;;;;5.90;5.40;;;;;;;22.51;62.38;95777.23;363178;291;620989;-54
2022/09/17 04:36:57;;;;;;;6.22;5.72;;;;;;;22.48;62.43;95772.45;363238;291;619977;-58
2022/09/17 04:38:59;;;;;;;6.40;5.75;;;;;;;22.54;62.34;95774.30;363157;291;619816;-56
2022/09/17 04:41:01;;;;;;;7.70;6.20;;;;;;;22.50;62.41;95783.92;363318;291;621149;-55
2022/09/17 04:43:03;;;;;;;6.30;5.70;;;;;;;22.55;62.30;95775.12;363212;291;621219;-55
2022/09/17 04:45:05;;;;;;;6.05;5.55;;;;;;;22.50;62.36;95775.64;363323;291;621436;-55
2022/09/17 04:47:07;;;;;;;7.28;5.58;;;;;;;22.55;62.33;95776.52;363219;291;620888;-57
2022/09/17 04:49:10;;;;;;;6.70;6.20;;;;;;;22.57;62.33;95778.31;363300;291;620179;-57
2022/09/17 04:51:12;;;;;;;5.65;5.15;;;;;;;22.50;62.39;95779.78;363156;291;619289;-56
2022/09/17 04:53:14;;;;;;;6.20;5.60;;;;;;;22.51;62.44;95778.61;363210;291;621181;-56
2022/09/17 04:55:16;;;;;;;6.00;5.50;;;;;;;22.52;62.43;95780.20;363112;291;619370;-54
2022/09/17 04:57:18;;;;;;;6.45;5.85;;;;;;;22.50;62.49;95778.40;363136;291;621429;-57
2022/09/17 04:59:20;;;;;;;5.60;5.12;;;;;;;22.45;62.56;95784.25;363138;291;621318;-57
2022/09/17 05:01:22;;;;;;;6.53;5.92;;;;;;;22.50;62.46;95778.98;363187;291;620715;-55
2022/09/17 05:03:25;;;;;;;5.60;5.10;;;;;;;22.45;62.54;95778.72;362812;291;622200;-56
2022/09/17 05:05:27;;;;;;;5.67;5.28;;;;;;;22.47;62.47;95779.14;363274;291;619628;-56
2022/09/17 05:07:29;;;;;;;7.83;6.30;;;;;;;22.46;62.48;95780.31;362871;291;620226;-54
2022/09/17 05:09:31;;;;;;;6.78;6.17;;;;;;;22.54;62.39;95777.06;363340;291;619238;-54
2022/09/17 05:11:33;;;;;;;5.67;5.15;;;;;;;22.50;62.46;95781.75;362908;291;620248;-57
2022/09/17 05:13:35;;;;;;;5.87;5.47;;;;;;;22.51;62.41;95786.89;363140;290;620345;-54
2022/09/17 05:15:37;;;;;;;5.60;5.20;;;;;;;22.49;62.52;95790.61;363186;291;621274;-55
2022/09/17 05:17:39;;;;;;;6.40;5.80;;;;;;;22.53;62.55;95792.05;362883;291;622151;-57
2022/09/17 05:19:42;;;;;;;6.15;5.65;;;;;;;22.49;62.54;95794.75;363236;291;620863;-58
2022/09/17 05:21:44;;;;;;;5.92;5.42;;;;;;;22.45;62.58;95799.43;363328;291;621670;-54
2022/09/17 05:23:46;;;;;;;5.95;5.42;;;;;;;22.56;62.49;95788.56;362771;290;620564;-56
2022/09/17 05:25:49;;;;;;;5.97;5.47;;;;;;;22.57;62.46;95786.59;362909;291;620954;-56
2022/09/17 05:27:51;;;;;;;5.65;5.10;;;;;;;22.47;62.60;95789.39;363054;291;620284;-56
2022/09/17 05:29:53;;;;;;;5.78;5.17;;;;;;;22.49;62.68;95786.47;362388;291;622254;-56
2022/09/17 05:31:55;;;;;;;6.03;5.42;;;;;;;22.52;62.63;95784.92;362316;291;619547;-54
2022/09/17 05:33:58;;;;;;;5.83;5.25;;;;;;;22.49;62.58;95787.85;362758;291;621138;-57
2022/09/17 05:36:00;;;;;;;4.70;4.37;;;;;;;22.52;62.61;95794.01;363307;291;619591;-53
2022/09/17 05:38:02;;;;;;;5.22;4.65;;;;;;;22.47;62.69;95794.91;362791;291;620820;-56
2022/09/17 05:40:05;;;;;;;5.05;4.65;;;;;;;22.46;62.72;95781.70;363246;291;619225;-56
2022/09/17 05:42:07;;;;;;;5.25;4.83;;;;;;;22.43;62.73;95785.17;363098;291;619881;-54
2022/09/17 05:44:10;;;;;;;4.85;4.33;;;;;;;22.39;62.84;95778.81;362827;291;620870;-55
2022/09/17 05:46:12;;;;;;;4.75;4.37;;;;;;;22.39;62.86;95788.47;362983;291;620303;-52
2022/09/17 05:48:14;;;;;;;4.95;4.55;;;;;;;22.39;62.91;95787.09;363016;291;620243;-56
2022/09/17 05:50:16;;;;;;;5.25;4.50;;;;;;;22.42;62.80;95778.64;362905;291;621191;-52
2022/09/17 05:52:18;;;;;;;5.30;4.80;;;;;;;22.41;62.84;95798.55;362763;291;620377;-53
2022/09/17 05:54:20;;;;;;;4.83;4.45;;;;;;;22.43;62.74;95792.08;363207;290;621529;-54
2022/09/17 05:56:23;;;;;;;4.92;4.42;;;;;;;22.46;62.69;95795.50;363179;291;620676;-56
2022/09/17 05:58:25;;;;;;;5.10;4.60;;;;;;;22.46;62.65;95795.50;363671;291;618389;-55
2022/09/17 06:00:28;;;;;;;4.62;4.33;;;;;;;22.45;62.73;95789.77;363349;291;620237;-55
2022/09/17 06:02:30;;;;;;;4.72;4.33;;;;;;;22.46;62.72;95798.26;363405;291;621007;-54
2022/09/17 06:04:32;;;;;;;4.55;4.15;;;;;;;22.43;62.86;95796.22;363776;290;620319;-55
2022/09/17 06:06:36;;;;;;;4.75;4.45;;;;;;;22.41;62.85;95795.80;363779;291;618995;-54
2022/09/17 06:08:38;;;;;;;4.60;4.20;;;;;;;22.47;62.79;95799.06;363502;291;620977;-55
2022/09/17 06:10:41;;;;;;;4.87;4.47;;;;;;;22.46;62.73;95798.26;363895;291;621162;-56
2022/09/17 06:12:43;;;;;;;4.72;4.33;;;;;;;22.51;62.68;95802.66;363473;291;621463;-55
2022/09/17 06:14:45;;;;;;;4.97;4.58;;;;;;;22.49;62.70;95800.28;361696;293;620553;-52
2022/09/17 06:16:47;;;;;;;4.50;4.20;;;;;;;22.48;62.69;95806.97;360403;293;619302;-55
2022/09/17 06:18:51;;;;;;;4.22;3.90;;;;;;;22.50;62.72;95807.97;363473;291;621649;-54
2022/09/17 06:20:53;;;;;;;4.90;4.50;;;;;;;22.59;62.57;95807.14;362788;290;591241;-55
2022/09/17 06:22:56;;;;;;;4.37;4.08;;;;;;;22.57;62.59;95815.59;363798;291;620915;-55
2022/09/17 06:25:03;;;;;;;4.55;4.15;;;;;;;22.57;62.63;95816.97;363863;290;621266;-54
2022/09/17 06:27:02;;;;;;;4.50;4.10;;;;;;;22.53;62.66;95814.13;363842;290;591546;-53
2022/09/17 06:29:04;;;;;;;4.37;4.05;;;;;;;22.50;62.75;95810.15;363380;291;621528;-56
2022/09/17 06:31:06;;;;;;;4.50;4.17;;;;;;;22.51;62.74;95810.95;363887;291;617749;-53
2022/09/17 06:33:09;;;;;;;3.75;3.45;;;;;;;22.47;62.86;95808.14;363769;291;621050;-56
2022/09/17 06:35:11;;;;;;;4.03;3.60;;;;;;;22.44;62.88;95811.64;363586;291;621408;-55
2022/09/17 06:37:13;;;;;;;4.08;3.77;;;;;;;22.45;62.92;95809.09;363867;291;621548;-54
2022/09/17 06:39:15;;;;;;;3.83;3.52;;;;;;;22.44;62.91;95811.64;363948;291;621853;-53
2022/09/17 06:41:17;;;;;;;3.25;3.05;;;;;;;22.42;62.89;95815.33;363876;291;620306;-55
2022/09/17 06:43:19;;;;;;;4.08;3.58;;;;;;;22.41;62.96;95815.12;363597;291;621398;-55
2022/09/17 06:45:21;;;;;;;3.60;3.37;;;;;;;22.41;62.93;95817.08;363531;291;621236;-55
2022/09/17 06:47:24;;;;;;;3.80;3.50;;;;;;;22.37;63.02;95823.93;363815;291;620304;-56
2022/09/17 06:49:27;;;;;;;3.95;3.65;;;;;;;22.42;62.95;95827.75;363840;291;621165;-56
2022/09/17 06:51:30;;;;;;;3.90;3.60;;;;;;;22.47;62.88;95822.53;363874;291;621563;-56
2022/09/17 06:53:32;;;;;;;3.85;3.55;;;;;;;22.46;62.89;95824.48;363315;291;622132;-55
2022/09/17 06:55:34;;;;;;;3.67;3.37;;;;;;;22.47;62.89;95819.77;363807;291;619669;-55
2022/09/17 06:57:37;;;;;;;3.67;3.37;;;;;;;22.44;62.93;95829.59;363665;291;621319;-55
2022/09/17 06:59:39;;;;;;;4.10;3.80;;;;;;;22.45;62.97;95813.81;363297;291;619582;-56
2022/09/17 07:01:41;;;;;;;3.30;3.10;;;;;;;22.51;62.81;95820.03;363251;291;620693;-54
2022/09/17 07:03:43;;;;;;;3.55;3.25;;;;;;;22.49;62.88;95819.60;363204;290;621154;-54
2022/09/17 07:05:46;;;;;;;3.17;2.98;;;;;;;22.44;62.98;95821.89;362859;291;621046;-56
2022/09/17 07:07:48;;;;;;;3.70;3.37;;;;;;;22.47;63.01;95827.46;363232;291;621760;-55
2022/09/17 07:09:52;;;;;;;3.40;3.10;;;;;;;22.44;63.05;95826.03;362929;291;621595;-53
2022/09/17 07:11:54;;;;;;;4.33;3.10;;;;;;;22.41;63.09;95823.40;362911;291;585335;-57
2022/09/17 07:13:56;;;;;;;3.65;3.35;;;;;;;22.45;63.04;95835.32;362572;291;621252;-56
2022/09/17 07:15:59;;;;;;;3.17;2.98;;;;;;;22.46;63.01;95823.11;362914;291;620626;-55
2022/09/17 07:18:01;;;;;;;3.10;2.87;;;;;;;22.43;63.07;95825.20;363247;291;622982;-56
2022/09/17 07:20:03;;;;;;;3.65;3.30;;;;;;;22.47;62.98;95823.91;362917;291;619302;-57
2022/09/17 07:22:05;;;;;;;3.83;2.90;;;;;;;22.43;63.02;95826.58;363147;291;621483;-56
2022/09/17 07:24:07;;;;;;;3.65;3.35;;;;;;;22.43;63.12;95833.48;362996;290;622536;-54
2022/09/17 07:26:10;;;;;;;3.15;2.95;;;;;;;22.44;63.01;95842.02;363295;291;621252;-56
2022/09/17 07:28:12;;;;;;;3.30;3.00;;;;;;;22.44;63.09;95837.07;362810;291;620441;-56
2022/09/17 07:30:14;;;;;;;3.40;3.10;;;;;;;22.41;63.16;95843.31;362563;291;620420;-56
2022/09/17 07:32:16;;;;;;;3.85;3.55;;;;;;;22.49;62.97;95852.73;363143;291;620735;-54
2022/09/17 07:34:18;;;;;;;4.10;3.70;;;;;;;22.48;62.98;95851.14;363272;291;620554;-56
2022/09/17 07:36:20;;;;;;;3.85;3.45;;;;;;;22.50;62.89;95858.47;363173;291;620584;-56
2022/09/17 07:38:22;;;;;;;3.20;3.00;;;;;;;22.51;62.89;95860.06;363231;291;621089;-55
2022/09/17 07:40:25;;;;;;;3.30;3.00;;;;;;;22.49;62.96;95865.16;362562;291;620425;-57
2022/09/17 07:42:27;;;;;;;3.75;3.25;;;;;;;22.49;62.94;95867.92;362820;291;619984;-56
2022/09/17 07:44:29;;;;;;;3.40;3.10;;;;;;;22.44;62.99;95862.72;362918;290;620211;-56
2022/09/17 07:46:31;;;;;;;3.60;3.00;;;;;;;22.45;63.04;95876.73;363262;291;620465;-57
2022/09/17 07:48:33;;;;;;;3.50;3.08;;;;;;;22.42;63.12;95880.20;363337;291;621227;-56
2022/09/17 07:50:35;;;;;;;3.00;2.80;;;;;;;22.47;63.04;95878.54;363319;291;621478;-55
2022/09/17 07:52:37;;;;;;;3.12;2.90;;;;;;;22.52;62.98;95884.33;362759;291;621505;-56
2022/09/17 07:54:39;;;;;;;3.45;3.15;;;;;;;22.43;63.06;95883.17;362796;291;620383;-57
2022/09/17 07:56:42;;;;;;;2.95;2.75;;;;;;;22.45;63.06;95887.78;362849;291;619631;-56
2022/09/17 07:58:44;;;;;;;3.25;2.95;;;;;;;22.44;63.11;95888.15;363231;291;621029;-56
2022/09/17 08:00:46;;;;;;;3.22;2.92;;;;;;;22.45;63.11;95893.30;363044;291;619329;-54
2022/09/17 08:02:48;;;;;;;3.58;3.27;;;;;;;22.48;63.01;95895.31;362849;291;621788;-56
2022/09/17 08:04:51;;;;;;;2.67;2.47;;;;;;;22.44;63.11;95900.57;363271;290;621503;-54
2022/09/17 08:06:53;;;;;;;5.00;3.00;;;;;;;22.42;63.16;95899.53;363313;291;619242;-55
2022/09/17 08:08:55;;;;;;;4.22;2.85;;;;;;;22.42;63.17;95899.53;362956;291;619327;-54
2022/09/17 08:10:57;;;;;;;3.20;2.90;;;;;;;22.45;63.15;95904.34;362549;291;620395;-56
2022/09/17 08:13:00;;;;;;;3.45;3.08;;;;;;;22.44;63.12;95897.23;363126;291;621270;-56
2022/09/17 08:15:02;;;;;;;3.62;2.80;;;;;;;22.41;63.21;95902.08;362945;290;620523;-54
2022/09/17 08:17:04;;;;;;;3.65;3.05;;;;;;;22.45;63.11;95909.86;363253;291;620347;-52
2022/09/17 08:19:09;;;;;;;4.65;3.00;;;;;;;22.48;63.16;95903.60;363276;291;621213;-55
2022/09/17 08:21:10;;;;;;;3.00;2.70;;;;;;;22.45;63.22;95912.62;363074;290;588202;-55
2022/09/17 08:23:13;;;;;;;3.02;2.47;;;;;;;22.47;63.14;95908.91;363206;291;621537;-56
2022/09/17 08:25:15;;;;;;;3.00;2.70;;;;;;;22.49;63.10;95901.64;363221;291;620799;-54
2022/09/17 08:27:17;;;;;;;3.62;2.60;;;;;;;22.47;63.12;95902.01;362571;291;619944;-56
2022/09/17 08:29:19;;;;;;;3.98;2.58;;;;;;;22.42;63.17;95909.19;363220;291;621421;-54
2022/09/17 08:31:21;;;;;;;3.00;2.70;;;;;;;22.44;63.21;95911.03;362796;291;620072;-53
2022/09/17 08:33:23;;;;;;;2.98;2.67;;;;;;;22.50;63.10;95912.89;363215;290;620380;-55
2022/09/17 08:35:26;;;;;;;3.10;2.80;;;;;;;22.47;63.13;95921.33;363294;291;622119;-54
2022/09/17 08:37:32;;;;;;;3.00;2.70;;;;;;;22.47;63.13;95921.33;363121;291;621060;-54
2022/09/17 08:39:34;;;;;;;2.65;2.45;;;;;;;22.46;63.17;95918.94;363100;291;620749;-54
2022/09/17 08:41:36;;;;;;;2.58;2.30;;;;;;;22.42;63.25;95924.96;362949;291;620211;-55
2022/09/17 08:43:38;;;;;;;3.72;2.67;;;;;;;22.39;63.33;95927.08;363065;291;620613;-53
2022/09/17 08:45:40;;;;;;;2.67;2.47;;;;;;;22.43;63.32;95923.80;363163;291;621482;-56
2022/09/17 08:47:42;;;;;;;2.58;2.37;;;;;;;22.40;63.39;95921.19;362941;291;621334;-55
2022/09/17 08:49:45;;;;;;;3.37;2.58;;;;;;;22.38;63.39;95925.48;363163;291;621717;-56
2022/09/17 08:51:50;;;;;;;3.25;2.50;;;;;;;22.39;63.36;95920.98;363241;291;619305;-56
2022/09/17 08:53:51;;;;;;;4.08;2.40;;;;;;;22.42;63.38;95928.52;363241;290;588875;-57
2022/09/17 08:55:53;;;;;;;3.85;2.40;;;;;;;22.40;63.39;95928.09;363007;291;621107;-55
2022/09/17 08:57:55;;;;;;;2.60;2.40;;;;;;;22.39;63.38;95933.40;363314;291;622164;-54
2022/09/17 08:59:57;;;;;;;4.33;3.00;;;;;;;22.41;63.30;95935.20;363824;291;620967;-57
2022/09/17 09:02:00;;;;;;;3.50;2.27;;;;;;;22.39;63.35;95937.54;363713;291;620485;-54
2022/09/17 09:04:02;;;;;;;4.15;2.80;;;;;;;22.39;63.41;95936.74;363731;291;620659;-56
2022/09/17 09:06:04;;;;;;;4.45;2.40;;;;;;;22.41;63.36;95936.59;363491;291;621183;-55
2022/09/17 09:08:07;;;;;;;3.10;2.33;;;;;;;22.42;63.33;95927.14;363609;291;621278;-54
2022/09/17 09:10:09;;;;;;;4.55;2.60;;;;;;;22.41;63.34;95925.55;363784;291;620043;-55
2022/09/17 09:12:11;;;;;;;4.15;2.67;;;;;;;22.42;63.31;95921.61;363413;291;620680;-55
2022/09/17 09:14:13;;;;;;;3.50;2.62;;;;;;;22.43;63.35;95923.21;363765;291;622396;-57
2022/09/17 09:16:15;;;;;;;2.75;2.35;;;;;;;22.41;63.34;95926.92;363366;291;621135;-54
2022/09/17 09:18:17;;;;;;;2.87;2.40;;;;;;;22.37;63.35;95927.45;363057;291;620438;-56
2022/09/17 09:20:19;;;;;;;3.62;3.15;;;;;;;22.40;63.33;95921.19;362966;291;619275;-56
2022/09/17 09:22:22;;;;;;;3.92;2.65;;;;;;;22.44;63.30;95924.04;363654;291;621214;-56
2022/09/17 09:24:25;;;;;;;3.67;2.50;;;;;;;22.43;63.30;95926.55;363603;291;619385;-56